Time;durP1;ratioP1;P1;durP2;ratioP2;P2;SDS_P1;SDS_P2;PMS_P1;PMS_P2;Temp;Humidity;BMP_temperature;BMP_pressure;BME280_temperature;BME280_humidity;BME280_pressure;Samples;Min_cycle;Max_cycle;Signal;HPM_P1;HPM_P2
2023/06/18 00:00:57;;;;;;;4.72;3.55;;;19.80;99.90;;;;;;4917828;29;20212;-74
2023/06/18 00:03:25;;;;;;;4.00;3.53;;;19.80;99.90;;;;;;4917421;29;20747;-74
2023/06/18 00:05:53;;;;;;;4.90;3.58;;;19.70;99.90;;;;;;4917627;29;20265;-74
2023/06/18 00:08:20;;;;;;;4.35;3.95;;;19.70;99.90;;;;;;4917311;29;20244;-74
2023/06/18 00:10:48;;;;;;;4.40;3.63;;;19.70;99.90;;;;;;4917441;29;20217;-74
2023/06/18 00:13:15;;;;;;;4.63;3.83;;;19.70;99.90;;;;;;4917839;29;20257;-71
2023/06/18 00:15:42;;;;;;;4.10;3.35;;;19.70;99.90;;;;;;4917342;29;20296;-74
2023/06/18 00:18:09;;;;;;;5.35;3.88;;;19.70;99.90;;;;;;4917391;29;20240;-74
2023/06/18 00:20:36;;;;;;;4.43;3.77;;;19.60;99.90;;;;;;4917392;29;20210;-74
2023/06/18 00:23:04;;;;;;;4.47;3.43;;;19.50;99.90;;;;;;4917349;29;20581;-74
2023/06/18 00:25:31;;;;;;;5.23;3.67;;;19.50;99.90;;;;;;4917393;29;20270;-74
2023/06/18 00:27:59;;;;;;;5.03;3.72;;;19.40;99.90;;;;;;4917090;29;20236;-74
2023/06/18 00:30:26;;;;;;;3.97;3.47;;;19.50;99.90;;;;;;4917168;29;20297;-73
2023/06/18 00:32:53;;;;;;;4.65;3.67;;;19.50;99.90;;;;;;4917030;29;20660;-75
2023/06/18 00:35:20;;;;;;;6.22;3.65;;;19.60;99.90;;;;;;4917319;29;20220;-74
2023/06/18 00:37:47;;;;;;;4.75;3.53;;;19.70;99.90;;;;;;4916900;29;20210;-70
2023/06/18 00:40:15;;;;;;;5.72;3.58;;;19.70;99.90;;;;;;4916889;29;20213;-72
2023/06/18 00:42:42;;;;;;;4.65;3.47;;;19.60;99.90;;;;;;4916700;29;20237;-71
2023/06/18 00:45:12;;;;;;;4.50;3.57;;;19.70;99.90;;;;;;4916793;29;20711;-71
2023/06/18 00:47:40;;;;;;;3.88;3.33;;;19.80;99.90;;;;;;4916952;29;20646;-70
2023/06/18 00:50:07;;;;;;;4.13;3.47;;;19.80;99.90;;;;;;4917052;29;20301;-70
2023/06/18 00:52:37;;;;;;;5.82;3.72;;;19.80;99.90;;;;;;4916897;29;20205;-70
2023/06/18 00:55:04;;;;;;;4.45;3.28;;;19.80;99.90;;;;;;4916915;29;20260;-70
2023/06/18 00:57:32;;;;;;;4.57;3.45;;;19.80;99.90;;;;;;4916862;29;20210;-70
2023/06/18 00:59:59;;;;;;;7.40;3.70;;;19.60;99.90;;;;;;4917152;29;20209;-72
2023/06/18 01:02:28;;;;;;;4.30;3.15;;;19.50;99.90;;;;;;4916808;29;20205;-71
2023/06/18 01:04:57;;;;;;;5.88;3.85;;;19.50;99.90;;;;;;4916593;29;20232;-74
2023/06/18 01:07:24;;;;;;;4.88;3.70;;;19.50;99.90;;;;;;4916728;29;20220;-75
2023/06/18 01:09:53;;;;;;;3.97;3.30;;;19.40;99.90;;;;;;4917068;29;20226;-73
2023/06/18 01:12:21;;;;;;;5.60;3.55;;;19.40;99.90;;;;;;4916507;29;20259;-74
2023/06/18 01:14:51;;;;;;;4.55;3.33;;;19.30;99.90;;;;;;4916502;29;20272;-74
2023/06/18 01:17:20;;;;;;;4.25;3.25;;;19.30;99.90;;;;;;4916976;29;20324;-75
2023/06/18 01:19:56;;;;;;;5.37;4.03;;;19.20;99.90;;;;;;4916501;29;20226;-74
2023/06/18 01:22:30;;;;;;;4.53;3.50;;;19.20;99.90;;;;;;4920566;29;20657;-72
2023/06/18 01:25:02;;;;;;;7.03;4.20;;;19.20;99.90;;;;;;4920328;29;20212;-71
2023/06/18 01:27:33;;;;;;;4.43;3.45;;;19.00;99.90;;;;;;4920613;29;20205;-72
2023/06/18 01:30:02;;;;;;;4.67;3.80;;;19.00;99.90;;;;;;4920508;29;20214;-76
2023/06/18 01:32:28;;;;;;;4.90;3.70;;;19.00;99.90;;;;;;4920355;29;20741;-74
2023/06/18 01:34:57;;;;;;;8.00;3.87;;;19.00;99.90;;;;;;4920406;29;20209;-72
2023/06/18 01:37:45;;;;;;;4.50;3.20;;;19.00;99.90;;;;;;4920433;29;20224;-74
2023/06/18 01:40:26;;;;;;;3.63;3.10;;;18.90;99.90;;;;;;4920007;29;20713;-72
2023/06/18 01:42:57;;;;;;;3.58;3.03;;;18.90;99.90;;;;;;4920019;29;20230;-74
2023/06/18 01:45:28;;;;;;;4.70;3.10;;;18.90;99.90;;;;;;4920130;29;20210;-74
2023/06/18 01:48:00;;;;;;;5.75;3.45;;;19.00;99.90;;;;;;4919974;29;20236;-74
2023/06/18 01:50:30;;;;;;;3.60;3.00;;;19.00;99.90;;;;;;4920131;29;20216;-75
2023/06/18 01:52:59;;;;;;;7.20;3.60;;;19.00;99.90;;;;;;4920153;29;20304;-74
2023/06/18 01:55:28;;;;;;;4.63;3.40;;;19.00;99.90;;;;;;4920224;29;20220;-74
2023/06/18 01:57:56;;;;;;;4.27;3.43;;;18.80;99.90;;;;;;4919784;29;20225;-72
2023/06/18 02:00:22;;;;;;;5.80;3.70;;;18.60;99.90;;;;;;4919974;29;20676;-75
2023/06/18 02:02:51;;;;;;;4.97;3.53;;;18.70;99.90;;;;;;4919682;29;20553;-74
2023/06/18 02:05:18;;;;;;;4.73;3.50;;;18.70;99.90;;;;;;4919862;29;20281;-74
2023/06/18 02:07:46;;;;;;;3.63;3.05;;;18.80;99.90;;;;;;4919529;29;20304;-74
2023/06/18 02:10:13;;;;;;;3.87;3.37;;;18.80;99.90;;;;;;4919487;29;20296;-74
2023/06/18 02:12:40;;;;;;;5.10;3.73;;;18.80;99.90;;;;;;4919314;29;20681;-70
2023/06/18 02:15:07;;;;;;;7.10;3.73;;;18.80;99.90;;;;;;4919772;29;20296;-74
2023/06/18 02:17:34;;;;;;;5.00;3.73;;;18.90;99.90;;;;;;4919506;29;20206;-74
2023/06/18 02:20:01;;;;;;;5.38;3.42;;;18.80;99.90;;;;;;4919839;29;20209;-74
2023/06/18 02:22:28;;;;;;;3.77;3.17;;;18.80;99.90;;;;;;4919564;29;20752;-75
2023/06/18 02:24:56;;;;;;;5.13;3.63;;;18.80;99.90;;;;;;4919457;29;20237;-71
2023/06/18 02:27:23;;;;;;;4.20;3.07;;;18.80;99.90;;;;;;4919385;29;20622;-74
2023/06/18 02:29:50;;;;;;;4.27;3.27;;;18.70;99.90;;;;;;4919330;29;20324;-74
2023/06/18 02:32:16;;;;;;;5.70;4.07;;;18.70;99.90;;;;;;4918964;29;20213;-73
2023/06/18 02:34:43;;;;;;;7.97;3.42;;;18.60;99.90;;;;;;4919279;29;20217;-72
2023/06/18 02:37:10;;;;;;;8.27;3.30;;;18.70;99.90;;;;;;4919240;29;20209;-72
2023/06/18 02:39:37;;;;;;;5.40;3.57;;;18.70;99.90;;;;;;4918947;29;20240;-72
2023/06/18 02:42:07;;;;;;;4.83;3.27;;;18.80;99.90;;;;;;4919348;29;20237;-74
2023/06/18 02:44:34;;;;;;;3.37;2.90;;;18.80;99.90;;;;;;4918785;29;20728;-74
2023/06/18 02:47:01;;;;;;;5.95;3.28;;;18.80;99.90;;;;;;4919396;29;20220;-71
2023/06/18 02:49:28;;;;;;;6.83;3.40;;;18.80;99.90;;;;;;4918589;29;20225;-74
2023/06/18 02:51:55;;;;;;;5.20;3.53;;;18.80;99.90;;;;;;4918762;29;20209;-74
2023/06/18 02:54:21;;;;;;;3.63;3.13;;;18.80;99.90;;;;;;4918379;29;20721;-73
2023/06/18 02:56:48;;;;;;;4.13;3.27;;;18.90;99.90;;;;;;4918178;29;20695;-70
2023/06/18 02:59:17;;;;;;;5.43;3.15;;;18.80;99.90;;;;;;4918558;29;20225;-75
2023/06/18 03:01:45;;;;;;;4.77;3.70;;;18.80;99.90;;;;;;4918838;29;20304;-71
2023/06/18 03:04:11;;;;;;;3.23;2.60;;;18.80;99.90;;;;;;4918638;29;20237;-75
2023/06/18 03:06:38;;;;;;;4.13;3.07;;;18.90;99.90;;;;;;4918666;29;20209;-75
2023/06/18 03:09:05;;;;;;;4.05;3.17;;;18.90;99.90;;;;;;4918597;29;20719;-74
2023/06/18 03:11:32;;;;;;;4.80;3.03;;;18.90;99.90;;;;;;4918533;29;20227;-72
2023/06/18 03:13:59;;;;;;;3.70;3.17;;;19.00;99.90;;;;;;4918413;29;20293;-70
2023/06/18 03:16:27;;;;;;;4.00;2.70;;;19.00;99.90;;;;;;4918467;29;20209;-72
2023/06/18 03:18:54;;;;;;;5.23;3.37;;;18.90;99.90;;;;;;4918440;29;20240;-73
2023/06/18 03:21:21;;;;;;;4.50;3.10;;;18.90;99.90;;;;;;4918464;29;20245;-73
2023/06/18 03:23:49;;;;;;;3.20;2.90;;;18.90;99.90;;;;;;4918875;29;20245;-73
2023/06/18 03:26:16;;;;;;;4.70;2.97;;;18.90;99.90;;;;;;4918711;29;20205;-74
2023/06/18 03:28:43;;;;;;;6.73;3.07;;;18.90;99.90;;;;;;4918349;29;20320;-69
2023/06/18 03:31:10;;;;;;;4.17;3.23;;;18.80;99.90;;;;;;4918603;29;20210;-73
2023/06/18 03:33:38;;;;;;;6.83;3.20;;;18.80;99.90;;;;;;4918215;29;20220;-75
2023/06/18 03:36:05;;;;;;;3.60;2.95;;;18.80;99.90;;;;;;4918338;29;20214;-74
2023/06/18 03:38:32;;;;;;;4.87;3.00;;;18.80;99.90;;;;;;4918288;29;20336;-72
2023/06/18 03:40:59;;;;;;;3.58;3.05;;;18.80;99.90;;;;;;4918190;29;20216;-71
2023/06/18 03:43:26;;;;;;;3.50;2.78;;;18.90;99.90;;;;;;4917548;29;20244;-74
2023/06/18 03:45:53;;;;;;;5.35;2.95;;;18.90;99.90;;;;;;4918314;29;20214;-75
2023/06/18 03:48:20;;;;;;;4.18;2.63;;;18.90;99.90;;;;;;4918416;29;20229;-73
2023/06/18 03:50:48;;;;;;;3.37;2.73;;;18.70;99.90;;;;;;4918713;29;20210;-75
2023/06/18 03:53:15;;;;;;;4.10;2.83;;;18.60;99.90;;;;;;4918439;29;20214;-75
2023/06/18 03:55:42;;;;;;;6.05;2.60;;;18.60;99.90;;;;;;4918393;29;20229;-72
2023/06/18 03:58:09;;;;;;;3.60;2.92;;;18.70;99.90;;;;;;4917781;29;20225;-74
2023/06/18 04:00:36;;;;;;;3.60;2.80;;;18.70;99.90;;;;;;4918269;29;20252;-73
2023/06/18 04:03:05;;;;;;;3.63;3.03;;;18.70;99.90;;;;;;4918058;29;20213;-75
2023/06/18 04:05:32;;;;;;;5.47;2.97;;;18.80;99.90;;;;;;4918150;29;20237;-75
2023/06/18 04:08:00;;;;;;;4.77;3.03;;;19.00;99.90;;;;;;4917668;29;20233;-75
2023/06/18 04:10:27;;;;;;;4.78;3.55;;;19.10;99.90;;;;;;4917617;29;20593;-75
2023/06/18 04:12:54;;;;;;;4.55;2.90;;;19.10;99.90;;;;;;4917320;29;20228;-75
2023/06/18 04:15:21;;;;;;;3.15;2.58;;;19.20;99.90;;;;;;4917120;29;20209;-74
2023/06/18 04:17:47;;;;;;;5.40;2.97;;;19.20;99.90;;;;;;4917433;29;20237;-75
2023/06/18 04:20:14;;;;;;;5.07;2.80;;;19.40;99.90;;;;;;4917766;29;20588;-75
2023/06/18 04:22:41;;;;;;;3.95;2.53;;;19.50;99.90;;;;;;4917444;29;20209;-76
2023/06/18 04:25:10;;;;;;;3.90;2.58;;;19.40;99.90;;;;;;4917256;29;20243;-76
2023/06/18 04:27:39;;;;;;;3.33;2.42;;;19.50;99.90;;;;;;4917033;29;20661;-72
2023/06/18 04:30:08;;;;;;;3.50;2.50;;;19.60;99.90;;;;;;4917282;29;20685;-70
2023/06/18 04:32:35;;;;;;;4.20;2.10;;;19.70;99.90;;;;;;4917406;29;20214;-71
2023/06/18 04:35:01;;;;;;;3.92;2.33;;;19.80;98.80;;;;;;4917041;29;20661;-70
2023/06/18 04:37:28;;;;;;;3.13;2.07;;;19.90;98.90;;;;;;4917322;29;20252;-73
2023/06/18 04:39:55;;;;;;;4.85;2.08;;;19.90;98.70;;;;;;4917094;29;20244;-71
2023/06/18 04:42:23;;;;;;;3.05;2.08;;;20.00;97.80;;;;;;4917238;29;20205;-72
2023/06/18 04:44:50;;;;;;;3.47;2.30;;;20.10;97.20;;;;;;4916739;29;20241;-70
2023/06/18 04:47:17;;;;;;;3.40;2.10;;;20.10;97.70;;;;;;4917144;29;20249;-71
2023/06/18 04:49:44;;;;;;;5.07;2.22;;;20.30;98.20;;;;;;4916664;29;20701;-73
2023/06/18 04:52:12;;;;;;;4.38;2.58;;;20.40;98.00;;;;;;4917006;29;20256;-71
2023/06/18 04:54:39;;;;;;;3.47;2.22;;;20.50;98.40;;;;;;4916293;29;20634;-73
2023/06/18 04:57:06;;;;;;;3.55;2.50;;;20.50;98.20;;;;;;4916654;29;20703;-72
2023/06/18 04:59:35;;;;;;;4.28;2.78;;;20.60;98.90;;;;;;4916899;29;20229;-71
2023/06/18 05:02:03;;;;;;;3.20;2.20;;;20.70;98.10;;;;;;4917055;29;20653;-73
2023/06/18 05:04:30;;;;;;;3.47;2.42;;;20.80;98.00;;;;;;4916865;29;20238;-72
2023/06/18 05:06:56;;;;;;;3.08;2.15;;;20.90;98.00;;;;;;4916668;29;20220;-70
2023/06/18 05:09:23;;;;;;;4.00;2.53;;;21.00;97.80;;;;;;4916757;29;20589;-74
2023/06/18 05:11:50;;;;;;;3.33;2.40;;;21.10;98.40;;;;;;4916684;29;20593;-70
2023/06/18 05:14:17;;;;;;;2.28;1.98;;;21.10;98.50;;;;;;4916684;29;20213;-70
2023/06/18 05:16:45;;;;;;;4.90;2.28;;;21.20;98.60;;;;;;4916353;29;20220;-71
2023/06/18 05:19:12;;;;;;;2.65;2.28;;;21.30;98.40;;;;;;4916688;29;20320;-72
2023/06/18 05:21:39;;;;;;;3.22;2.15;;;21.40;98.40;;;;;;4916580;29;20213;-71
2023/06/18 05:24:07;;;;;;;4.60;2.67;;;21.50;98.40;;;;;;4916559;29;20237;-72
2023/06/18 05:26:34;;;;;;;5.28;2.33;;;21.60;97.50;;;;;;4916463;29;20577;-74
2023/06/18 05:29:01;;;;;;;2.95;2.38;;;21.80;97.80;;;;;;4916296;29;20229;-70
2023/06/18 05:31:28;;;;;;;3.15;2.10;;;21.80;98.40;;;;;;4916850;29;20209;-73
2023/06/18 05:33:56;;;;;;;3.42;2.50;;;21.60;98.30;;;;;;4916763;29;20264;-73
2023/06/18 05:36:23;;;;;;;3.25;2.30;;;21.60;98.20;;;;;;4916518;29;20214;-73
2023/06/18 05:38:52;;;;;;;2.65;2.15;;;21.70;98.10;;;;;;4916535;29;20225;-71
2023/06/18 05:41:18;;;;;;;2.90;2.00;;;21.90;98.30;;;;;;4916768;29;20214;-70
2023/06/18 05:43:45;;;;;;;2.92;2.10;;;22.00;97.80;;;;;;4916509;29;20213;-73
2023/06/18 05:46:12;;;;;;;3.85;2.63;;;22.00;98.00;;;;;;4916439;29;20241;-75
2023/06/18 05:48:39;;;;;;;3.08;2.20;;;22.20;98.40;;;;;;4916454;29;20233;-75
2023/06/18 05:51:07;;;;;;;4.22;2.47;;;22.30;98.70;;;;;;4916740;29;20663;-74
2023/06/18 05:53:34;;;;;;;3.38;2.75;;;22.30;98.70;;;;;;4916167;29;20206;-73
2023/06/18 05:56:01;;;;;;;4.03;2.58;;;22.10;98.40;;;;;;4916463;29;20213;-74
2023/06/18 05:58:28;;;;;;;5.15;2.22;;;22.10;98.60;;;;;;4916054;29;20230;-73
2023/06/18 06:00:55;;;;;;;3.28;2.53;;;22.30;99.10;;;;;;4916232;29;20297;-73
2023/06/18 06:03:22;;;;;;;4.80;2.30;;;22.30;99.40;;;;;;4916285;29;20221;-73
2023/06/18 06:05:49;;;;;;;3.03;2.15;;;22.50;99.90;;;;;;4916021;29;20244;-71
2023/06/18 06:08:17;;;;;;;3.22;2.33;;;22.50;99.90;;;;;;4919502;29;20240;-73
2023/06/18 06:10:44;;;;;;;3.25;2.40;;;22.60;99.90;;;;;;4919752;29;20216;-73
2023/06/18 06:13:11;;;;;;;4.38;2.38;;;22.80;99.90;;;;;;4919727;29;20260;-72
2023/06/18 06:15:38;;;;;;;3.47;2.40;;;23.00;99.90;;;;;;4919586;29;20260;-70
2023/06/18 06:18:05;;;;;;;2.72;2.20;;;23.00;99.90;;;;;;4918872;29;20660;-73
2023/06/18 06:20:32;;;;;;;3.75;2.97;;;22.90;99.90;;;;;;4918871;29;20209;-73
2023/06/18 06:22:59;;;;;;;3.28;2.20;;;22.90;99.90;;;;;;4919370;29;20231;-71
2023/06/18 06:25:27;;;;;;;2.95;2.40;;;23.00;99.90;;;;;;4919394;29;20237;-73
2023/06/18 06:27:54;;;;;;;3.25;2.38;;;22.90;99.90;;;;;;4919328;29;20235;-72
2023/06/18 06:30:21;;;;;;;3.10;2.45;;;22.90;99.90;;;;;;4919126;29;20304;-69
2023/06/18 06:32:47;;;;;;;3.88;2.42;;;22.90;99.90;;;;;;4919260;29;20224;-69
2023/06/18 06:35:14;;;;;;;2.85;2.35;;;22.90;99.90;;;;;;4919133;29;20742;-71
2023/06/18 06:37:42;;;;;;;6.38;2.50;;;22.50;99.90;;;;;;4919071;29;20304;-68
2023/06/18 06:40:10;;;;;;;3.55;2.80;;;22.40;99.90;;;;;;4919333;29;20213;-70
2023/06/18 06:42:38;;;;;;;4.05;2.80;;;22.00;99.90;;;;;;4919235;29;20213;-73
2023/06/18 06:45:06;;;;;;;3.95;2.70;;;21.80;99.90;;;;;;4918884;29;20237;-69
2023/06/18 06:47:33;;;;;;;3.22;2.47;;;21.80;99.90;;;;;;4918627;29;20220;-70
2023/06/18 06:50:00;;;;;;;5.07;2.75;;;21.70;99.90;;;;;;4919369;29;20210;-69
2023/06/18 06:52:27;;;;;;;3.42;2.55;;;21.60;99.90;;;;;;4919239;29;20206;-70
2023/06/18 06:54:53;;;;;;;3.97;2.63;;;21.50;99.90;;;;;;4918814;29;20296;-69
2023/06/18 06:57:20;;;;;;;3.17;2.42;;;21.40;99.90;;;;;;4918396;29;20767;-69
2023/06/18 06:59:48;;;;;;;4.47;2.55;;;21.20;99.90;;;;;;4918496;29;20236;-72
2023/06/18 07:02:15;;;;;;;2.70;2.17;;;21.10;99.90;;;;;;4918462;29;20300;-70
2023/06/18 07:04:46;;;;;;;4.25;2.40;;;21.10;99.90;;;;;;4918599;29;20689;-68
2023/06/18 07:07:13;;;;;;;2.95;2.38;;;21.30;99.90;;;;;;4918974;29;20210;-69
2023/06/18 07:09:40;;;;;;;3.10;2.65;;;21.20;99.90;;;;;;4919043;29;20260;-70
2023/06/18 07:12:08;;;;;;;3.00;2.30;;;21.20;99.90;;;;;;4918541;29;20221;-74
2023/06/18 07:14:35;;;;;;;3.90;2.53;;;21.10;99.90;;;;;;4918488;29;20210;-70
2023/06/18 07:17:04;;;;;;;2.75;2.40;;;21.10;99.90;;;;;;4918699;29;20209;-69
2023/06/18 07:19:31;;;;;;;6.13;2.55;;;21.20;99.90;;;;;;4917455;29;20233;-70
2023/06/18 07:21:58;;;;;;;2.80;2.33;;;21.20;99.90;;;;;;4913570;29;20300;-69
2023/06/18 07:24:24;;;;;;;2.75;2.20;;;21.10;99.90;;;;;;4916770;29;20772;-69
2023/06/18 07:26:51;;;;;;;3.67;2.20;;;20.90;99.90;;;;;;4917461;29;20220;-69
2023/06/18 07:29:18;;;;;;;3.13;2.45;;;20.90;99.90;;;;;;4917532;29;20265;-69
2023/06/18 07:31:45;;;;;;;3.03;2.60;;;20.90;99.90;;;;;;4917141;29;20781;-68
2023/06/18 07:34:13;;;;;;;3.28;2.50;;;20.90;99.90;;;;;;4917562;29;20213;-68
2023/06/18 07:36:40;;;;;;;5.22;2.70;;;20.90;99.90;;;;;;4916087;29;20218;-69
2023/06/18 07:39:08;;;;;;;4.75;3.10;;;20.90;99.90;;;;;;4916843;29;20658;-68
2023/06/18 07:41:34;;;;;;;4.40;2.78;;;21.00;99.90;;;;;;4916487;29;20213;-68
2023/06/18 07:44:01;;;;;;;3.55;2.70;;;20.90;99.90;;;;;;4916511;29;20301;-67
2023/06/18 07:46:28;;;;;;;3.85;2.90;;;20.80;99.90;;;;;;4915940;29;20237;-68
2023/06/18 07:48:55;;;;;;;3.20;2.53;;;20.80;99.90;;;;;;4916609;29;20234;-68
2023/06/18 07:51:23;;;;;;;3.67;3.28;;;20.90;99.90;;;;;;4915712;29;20232;-68
2023/06/18 07:53:50;;;;;;;2.97;2.50;;;20.90;99.90;;;;;;4916550;29;20673;-69
2023/06/18 07:56:17;;;;;;;4.40;3.00;;;20.90;99.90;;;;;;4916402;29;20265;-68
2023/06/18 07:58:44;;;;;;;4.53;2.92;;;20.90;99.90;;;;;;4915769;29;20622;-68
2023/06/18 08:01:11;;;;;;;5.13;2.53;;;20.80;99.90;;;;;;4916397;29;20584;-68
2023/06/18 08:03:38;;;;;;;6.65;2.67;;;21.00;99.90;;;;;;4916246;29;20210;-67
2023/06/18 08:06:05;;;;;;;5.10;3.03;;;21.10;99.90;;;;;;4915809;29;20252;-68
2023/06/18 08:08:33;;;;;;;3.40;2.60;;;21.30;99.90;;;;;;4916196;29;20249;-70
2023/06/18 08:11:00;;;;;;;4.45;2.78;;;21.40;99.90;;;;;;4915986;29;20312;-72
2023/06/18 08:13:27;;;;;;;3.50;2.70;;;21.50;99.90;;;;;;4915559;29;20214;-76
2023/06/18 08:15:54;;;;;;;3.33;2.92;;;21.60;99.90;;;;;;4916386;29;20214;-69
2023/06/18 08:18:20;;;;;;;3.10;2.58;;;21.80;99.90;;;;;;4915992;29;20240;-68
2023/06/18 08:20:47;;;;;;;3.30;2.58;;;21.90;99.90;;;;;;4915239;29;20312;-68
2023/06/18 08:23:15;;;;;;;3.20;2.70;;;22.20;99.90;;;;;;4899046;29;20696;-69
2023/06/18 08:25:43;;;;;;;5.40;2.60;;;22.30;99.90;;;;;;4915706;29;20811;-67
2023/06/18 08:28:10;;;;;;;3.35;2.80;;;22.40;99.90;;;;;;4913517;29;20751;-67
2023/06/18 08:30:37;;;;;;;5.13;2.90;;;22.50;99.90;;;;;;4913284;29;20210;-69
2023/06/18 08:33:04;;;;;;;4.82;2.42;;;22.60;99.90;;;;;;4915765;29;20209;-68
2023/06/18 08:35:31;;;;;;;3.55;2.85;;;22.80;99.90;;;;;;4915341;29;20217;-70
2023/06/18 08:37:57;;;;;;;3.95;2.78;;;23.00;99.90;;;;;;4915283;29;20233;-67
2023/06/18 08:40:25;;;;;;;3.60;2.85;;;23.10;99.90;;;;;;4915664;29;20215;-69
2023/06/18 08:42:53;;;;;;;6.13;2.95;;;23.10;99.90;;;;;;4914470;29;20209;-67
2023/06/18 08:45:20;;;;;;;4.28;2.83;;;23.10;99.90;;;;;;4912674;29;20240;-69
2023/06/18 08:47:53;;;;;;;4.32;2.97;;;23.00;99.90;;;;;;4915431;29;20210;-74
2023/06/18 08:50:21;;;;;;;4.15;2.92;;;23.00;99.90;;;;;;4915164;29;20220;-71
2023/06/18 08:52:52;;;;;;;4.28;3.08;;;22.90;99.90;;;;;;4915874;29;20236;-70
2023/06/18 08:55:19;;;;;;;4.93;2.70;;;22.80;99.90;;;;;;4915424;29;20217;-70
2023/06/18 08:57:52;;;;;;;3.67;3.03;;;22.70;99.90;;;;;;4914986;29;20554;-73
2023/06/18 09:00:21;;;;;;;4.50;3.17;;;22.80;99.90;;;;;;4915974;29;20245;-73
2023/06/18 09:02:49;;;;;;;5.35;3.08;;;22.90;99.90;;;;;;4915509;29;20300;-68
2023/06/18 09:05:16;;;;;;;4.00;2.97;;;22.70;99.90;;;;;;4914846;29;20268;-71
2023/06/18 09:07:43;;;;;;;4.25;3.15;;;22.70;99.90;;;;;;4915810;29;20216;-68
2023/06/18 09:10:11;;;;;;;4.22;3.50;;;22.80;99.90;;;;;;4915746;29;20210;-76
2023/06/18 09:12:38;;;;;;;4.28;3.60;;;22.80;99.90;;;;;;4913954;29;20221;-69
2023/06/18 09:15:05;;;;;;;5.13;3.70;;;22.40;99.90;;;;;;4912176;29;20209;-75
2023/06/18 09:17:35;;;;;;;6.13;3.83;;;22.10;99.90;;;;;;4911704;29;20406;-67
2023/06/18 09:20:03;;;;;;;6.40;3.70;;;21.80;99.90;;;;;;4914101;29;20241;-69
2023/06/18 09:22:30;;;;;;;4.60;3.90;;;21.80;99.90;;;;;;4915744;29;20216;-68
2023/06/18 09:24:58;;;;;;;5.95;3.83;;;21.80;99.90;;;;;;4915304;29;20217;-70
2023/06/18 09:27:32;;;;;;;4.30;3.50;;;21.60;99.90;;;;;;4914932;29;20253;-70
2023/06/18 09:29:58;;;;;;;5.57;3.75;;;21.40;99.90;;;;;;4911711;29;20735;-68
2023/06/18 09:32:25;;;;;;;4.68;3.92;;;21.10;99.90;;;;;;4915187;29;20220;-68
2023/06/18 09:34:54;;;;;;;5.93;3.83;;;21.00;99.90;;;;;;4915135;29;20274;-69
2023/06/18 09:37:21;;;;;;;4.95;4.15;;;21.00;99.90;;;;;;4915358;29;20213;-75
2023/06/18 09:39:47;;;;;;;5.43;4.05;;;21.00;99.90;;;;;;4915145;29;20233;-71
2023/06/18 09:42:14;;;;;;;5.50;4.05;;;20.90;99.90;;;;;;4916172;29;20766;-78
2023/06/18 09:44:45;;;;;;;4.78;4.03;;;21.10;99.90;;;;;;4918746;29;20216;-75
2023/06/18 09:47:15;;;;;;;8.68;4.40;;;21.10;99.90;;;;;;4918643;29;20245;-72
2023/06/18 09:49:45;;;;;;;6.93;4.32;;;21.20;99.90;;;;;;4918447;29;20268;-70
2023/06/18 09:52:13;;;;;;;7.03;4.20;;;21.20;99.90;;;;;;4919351;29;20210;-72
2023/06/18 09:54:44;;;;;;;7.70;4.50;;;21.40;99.90;;;;;;4920607;29;20216;-74
2023/06/18 09:57:13;;;;;;;7.13;4.40;;;21.50;99.90;;;;;;4920233;29;20669;-73
2023/06/18 09:59:40;;;;;;;6.68;4.45;;;21.70;99.90;;;;;;4919775;29;20233;-74
2023/06/18 10:02:09;;;;;;;5.07;3.80;;;21.80;99.90;;;;;;4919811;29;20238;-70
2023/06/18 10:04:37;;;;;;;5.93;4.28;;;21.70;99.90;;;;;;4919635;29;20261;-70
2023/06/18 10:07:05;;;;;;;6.95;4.32;;;21.80;99.90;;;;;;4919716;29;20705;-71
2023/06/18 10:09:36;;;;;;;5.72;4.93;;;21.90;99.90;;;;;;4919395;29;20233;-73
2023/06/18 10:12:05;;;;;;;6.32;4.30;;;21.90;99.90;;;;;;4915227;29;20222;-73
2023/06/18 10:14:33;;;;;;;4.32;3.90;;;21.90;99.90;;;;;;4918604;29;20220;-76
2023/06/18 10:17:06;;;;;;;5.68;4.13;;;22.40;99.90;;;;;;4918755;29;20221;-70
2023/06/18 10:19:37;;;;;;;5.45;4.03;;;22.70;99.90;;;;;;4919596;29;20255;-70
2023/06/18 10:22:04;;;;;;;6.13;4.30;;;22.80;99.90;;;;;;4919490;29;20214;-72
2023/06/18 10:24:37;;;;;;;4.35;3.80;;;23.00;99.90;;;;;;4919721;29;20210;-74
2023/06/18 10:27:05;;;;;;;4.07;3.45;;;23.10;99.90;;;;;;4919399;29;20239;-69
2023/06/18 10:29:33;;;;;;;4.78;3.70;;;23.20;99.90;;;;;;4920265;29;20230;-70
2023/06/18 10:32:01;;;;;;;4.90;4.03;;;23.00;99.90;;;;;;4920252;29;20212;-71
2023/06/18 10:34:28;;;;;;;5.40;3.92;;;23.10;99.90;;;;;;4920573;29;20217;-68
2023/06/18 10:36:57;;;;;;;6.05;4.13;;;23.50;99.90;;;;;;4920714;29;20296;-69
2023/06/18 10:39:25;;;;;;;4.53;3.80;;;23.50;99.90;;;;;;4920028;29;20234;-70
2023/06/18 10:41:54;;;;;;;4.90;4.35;;;23.50;99.90;;;;;;4919241;29;20206;-71
2023/06/18 10:44:33;;;;;;;8.05;4.03;;;23.40;99.90;;;;;;4918946;29;20214;-72
2023/06/18 10:47:20;;;;;;;6.13;4.20;;;23.40;99.90;;;;;;4919065;29;20233;-68
2023/06/18 10:50:13;;;;;;;8.48;4.13;;;23.80;99.90;;;;;;4918942;29;20320;-68
2023/06/18 10:52:40;;;;;;;6.18;4.28;;;24.20;99.90;;;;;;4918072;29;20214;-69
2023/06/18 10:55:08;;;;;;;5.13;3.97;;;24.10;99.90;;;;;;4918507;29;20216;-68
2023/06/18 10:57:38;;;;;;;6.18;4.60;;;24.10;99.90;;;;;;4918492;29;20292;-71
2023/06/18 11:00:19;;;;;;;6.30;4.43;;;23.80;99.90;;;;;;4919392;29;20221;-69
2023/06/18 11:02:49;;;;;;;5.70;4.53;;;23.60;99.90;;;;;;4918489;29;20205;-68
2023/06/18 11:05:39;;;;;;;4.93;4.40;;;23.50;99.90;;;;;;4918671;29;20761;-69
2023/06/18 11:08:07;;;;;;;6.30;4.65;;;23.50;99.90;;;;;;4918431;29;20269;-68
2023/06/18 11:10:36;;;;;;;6.63;4.63;;;23.50;99.90;;;;;;4918423;29;20210;-71
2023/06/18 11:13:05;;;;;;;6.45;4.60;;;23.50;99.90;;;;;;4918050;29;20213;-68
2023/06/18 11:15:32;;;;;;;6.05;4.50;;;23.40;99.90;;;;;;4918724;29;20210;-69
2023/06/18 11:18:01;;;;;;;5.38;4.53;;;23.40;99.90;;;;;;4918430;29;20230;-71
2023/06/18 11:20:30;;;;;;;8.40;5.00;;;23.40;99.90;;;;;;4918212;29;20312;-68
2023/06/18 11:22:59;;;;;;;6.07;4.90;;;23.50;99.90;;;;;;4918475;29;20292;-71
2023/06/18 11:25:28;;;;;;;7.20;4.68;;;23.40;99.90;;;;;;4918285;29;20665;-69
2023/06/18 11:27:58;;;;;;;6.18;4.78;;;23.40;99.90;;;;;;4917934;29;20734;-69
2023/06/18 11:30:26;;;;;;;6.40;4.50;;;23.40;99.90;;;;;;4918321;29;20213;-71
2023/06/18 11:32:53;;;;;;;5.70;4.45;;;23.30;99.90;;;;;;4918151;29;20221;-70
2023/06/18 11:35:20;;;;;;;6.97;4.32;;;23.20;99.90;;;;;;4918459;29;20288;-71
2023/06/18 11:37:47;;;;;;;6.03;4.70;;;23.10;99.90;;;;;;4918348;29;20220;-68
2023/06/18 11:40:13;;;;;;;6.65;4.40;;;23.10;99.90;;;;;;4918043;29;20209;-69
2023/06/18 11:42:49;;;;;;;7.97;4.72;;;22.90;99.90;;;;;;4917865;29;20686;-68
2023/06/18 11:45:17;;;;;;;4.95;3.85;;;23.10;99.90;;;;;;4917724;29;20220;-71
2023/06/18 11:47:48;;;;;;;6.50;4.85;;;23.40;99.90;;;;;;4917524;29;20237;-69
2023/06/18 11:50:15;;;;;;;8.55;4.90;;;23.70;99.90;;;;;;4918217;29;20209;-71
2023/06/18 11:52:43;;;;;;;5.05;4.22;;;23.80;99.90;;;;;;4918111;29;20533;-71
2023/06/18 11:55:10;;;;;;;7.22;4.35;;;24.00;99.90;;;;;;4917985;29;20273;-71
2023/06/18 11:57:37;;;;;;;7.97;4.93;;;24.20;99.90;;;;;;4917579;29;20206;-68
2023/06/18 12:00:08;;;;;;;4.85;4.22;;;24.00;99.90;;;;;;4917775;29;20220;-70
2023/06/18 12:02:37;;;;;;;7.32;4.60;;;24.00;99.90;;;;;;4918687;29;20209;-73
2023/06/18 12:05:06;;;;;;;6.68;4.60;;;24.30;99.90;;;;;;4917437;29;20564;-70
2023/06/18 12:07:33;;;;;;;4.93;3.92;;;24.60;99.90;;;;;;4917336;29;20237;-70
2023/06/18 12:10:06;;;;;;;5.95;4.60;;;24.90;99.90;;;;;;4917550;29;20213;-68
2023/06/18 12:12:39;;;;;;;4.57;4.03;;;25.00;99.90;;;;;;4917271;29;20243;-69
2023/06/18 12:15:13;;;;;;;4.82;4.00;;;25.40;99.90;;;;;;4917309;29;20242;-72
2023/06/18 12:17:49;;;;;;;6.25;4.05;;;25.70;99.90;;;;;;4917545;29;20240;-71
2023/06/18 12:20:20;;;;;;;6.53;4.55;;;26.00;99.90;;;;;;4917212;29;20212;-72
2023/06/18 12:22:47;;;;;;;7.60;5.75;;;25.70;99.90;;;;;;4917259;29;20221;-70
2023/06/18 12:25:16;;;;;;;5.20;4.20;;;25.80;99.90;;;;;;4917049;29;20216;-69
2023/06/18 12:27:44;;;;;;;4.35;3.80;;;25.50;99.90;;;;;;4917021;29;20243;-69
2023/06/18 12:30:13;;;;;;;4.07;3.60;;;25.50;99.90;;;;;;4917233;29;20213;-70
2023/06/18 12:32:39;;;;;;;5.50;4.07;;;25.60;99.90;;;;;;4917260;29;21344;-68
2023/06/18 12:35:14;;;;;;;4.38;3.80;;;25.60;99.90;;;;;;4917198;29;20209;-71
2023/06/18 12:37:43;;;;;;;4.43;3.75;;;25.60;99.90;;;;;;4916826;29;20258;-71
2023/06/18 12:40:14;;;;;;;6.30;3.55;;;25.80;99.90;;;;;;4917211;29;20219;-71
2023/06/18 12:42:41;;;;;;;4.20;3.45;;;25.60;99.90;;;;;;4916813;29;20308;-70
2023/06/18 12:45:08;;;;;;;5.20;3.92;;;25.50;99.90;;;;;;4917061;29;20213;-70
2023/06/18 12:47:40;;;;;;;4.18;3.28;;;25.40;99.90;;;;;;4917044;29;20267;-69
2023/06/18 12:50:07;;;;;;;4.55;3.30;;;25.70;99.90;;;;;;4917131;29;20665;-69
2023/06/18 12:52:40;;;;;;;4.20;3.45;;;26.00;99.90;;;;;;4917169;29;20213;-71